createdAt,value
2023-11-19T00:02:34.541Z,68.20
2023-11-19T00:05:21.885Z,68.10
2023-11-19T00:08:09.956Z,68.30
2023-11-19T00:10:57.182Z,68.50
2023-11-19T00:13:44.402Z,68.40
2023-11-19T00:16:33.261Z,68.30
2023-11-19T00:19:20.564Z,68.30
2023-11-19T00:22:07.829Z,68.30
2023-11-19T00:24:55.347Z,68.20
2023-11-19T00:27:45.951Z,68.30
2023-11-19T00:30:33.701Z,68.40
2023-11-19T00:33:20.950Z,68.30
2023-11-19T00:36:08.763Z,68.10
2023-11-19T00:38:56.393Z,68.10
2023-11-19T00:41:43.808Z,68.20
2023-11-19T00:44:31.043Z,68.10
2023-11-19T00:47:21.563Z,68.00
2023-11-19T00:50:12.739Z,68.10
2023-11-19T00:53:00.066Z,68.10
2023-11-19T00:55:47.684Z,68.10
2023-11-19T00:58:35.209Z,68.30
2023-11-19T01:01:22.823Z,68.30
2023-11-19T01:04:10.128Z,68.40
2023-11-19T01:06:57.470Z,68.60
2023-11-19T01:09:44.725Z,68.40
2023-11-19T01:12:32.468Z,68.50
2023-11-19T01:15:20.351Z,68.50
2023-11-19T01:18:10.350Z,68.60
2023-11-19T01:20:57.868Z,68.60
2023-11-19T01:23:45.199Z,69.10
2023-11-19T01:26:32.487Z,68.90
2023-11-19T01:29:21.302Z,69.00
2023-11-19T01:32:08.623Z,68.90
2023-11-19T01:34:56.004Z,68.80
2023-11-19T01:37:43.269Z,68.70
2023-11-19T01:40:30.608Z,68.70
2023-11-19T01:43:37.606Z,68.80
2023-11-19T01:46:24.884Z,68.80
2023-11-19T01:49:13.682Z,68.70
2023-11-19T01:52:01.587Z,68.80
2023-11-19T01:54:48.926Z,68.70
2023-11-19T01:57:38.802Z,68.70
2023-11-19T02:00:26.755Z,68.80
2023-11-19T02:03:15.250Z,68.60
2023-11-19T02:06:02.826Z,68.50
2023-11-19T02:08:50.703Z,68.60
2023-11-19T02:11:41.198Z,69.30
2023-11-19T02:14:29.785Z,68.70
2023-11-19T02:17:32.440Z,68.70
2023-11-19T02:20:21.323Z,68.70
2023-11-19T02:23:08.644Z,68.70
2023-11-19T02:26:04.376Z,68.90
2023-11-19T02:28:51.702Z,68.90
2023-11-19T02:31:38.910Z,68.90
2023-11-19T02:34:26.555Z,68.90
2023-11-19T02:37:15.836Z,68.80
2023-11-19T02:40:04.506Z,68.70
2023-11-19T02:42:52.990Z,68.70
2023-11-19T02:45:40.497Z,68.70
2023-11-19T02:48:27.677Z,68.80
2023-11-19T02:51:14.944Z,68.80
2023-11-19T02:54:04.893Z,68.70
2023-11-19T02:56:56.575Z,68.70
2023-11-19T02:59:44.742Z,68.60
2023-11-19T03:02:35.451Z,68.70
2023-11-19T03:05:22.841Z,68.50
2023-11-19T03:08:10.073Z,68.50
2023-11-19T03:10:57.308Z,68.50
2023-11-19T03:13:44.491Z,68.60
2023-11-19T03:16:32.066Z,68.60
2023-11-19T03:22:09.416Z,68.70
2023-11-19T03:24:57.253Z,68.70
2023-11-19T03:27:44.519Z,68.40
2023-11-19T03:30:35.452Z,68.20
2023-11-19T03:33:23.075Z,68.20
2023-11-19T03:36:10.426Z,68.30
2023-11-19T03:38:57.666Z,68.10
2023-11-19T03:41:48.249Z,68.20
2023-11-19T03:44:35.527Z,67.90
2023-11-19T03:47:23.266Z,67.70
2023-11-19T03:50:10.620Z,67.50
2023-11-19T03:52:58.032Z,67.50
2023-11-19T03:55:45.376Z,67.40
2023-11-19T03:58:32.743Z,67.50
2023-11-19T04:01:20.068Z,67.50
2023-11-19T04:04:07.443Z,67.70
2023-11-19T04:06:55.230Z,67.90
2023-11-19T04:09:42.514Z,68.00
2023-11-19T04:12:29.825Z,68.00
2023-11-19T04:15:17.216Z,68.20
2023-11-19T04:18:04.567Z,68.40
2023-11-19T04:20:52.187Z,68.50
2023-11-19T04:23:39.410Z,68.50
2023-11-19T04:26:26.649Z,68.50
2023-11-19T04:29:15.909Z,68.60
2023-11-19T04:32:03.192Z,68.70
2023-11-19T04:34:50.533Z,68.70
2023-11-19T04:37:38.906Z,68.60
2023-11-19T04:40:26.364Z,68.50
2023-11-19T04:43:14.106Z,68.60
2023-11-19T04:46:01.460Z,68.50
2023-11-19T04:48:48.736Z,68.50
2023-11-19T04:51:39.885Z,68.50
2023-11-19T04:54:27.107Z,68.50
2023-11-19T04:57:14.428Z,68.30
2023-11-19T05:00:01.850Z,68.40
2023-11-19T05:02:49.160Z,69.20
2023-11-19T05:05:36.569Z,68.60
2023-11-19T05:08:23.901Z,68.50
2023-11-19T05:11:13.325Z,68.60
2023-11-19T05:14:00.782Z,68.60
2023-11-19T05:16:48.199Z,68.70
2023-11-19T05:19:35.671Z,68.80
2023-11-19T05:22:23.081Z,68.80
2023-11-19T05:25:11.922Z,68.90
2023-11-19T05:27:59.403Z,68.90
2023-11-19T05:30:47.168Z,69.10
2023-11-19T05:33:34.441Z,69.40
2023-11-19T05:36:21.712Z,69.30
2023-11-19T05:39:09.295Z,69.40
2023-11-19T05:41:56.671Z,69.60
2023-11-19T05:44:43.986Z,69.60
2023-11-19T05:47:31.478Z,69.80
2023-11-19T05:50:18.740Z,70.00
2023-11-19T05:53:11.468Z,70.10
2023-11-19T05:55:59.540Z,70.10
2023-11-19T05:58:47.083Z,70.10
2023-11-19T06:01:37.747Z,70.90
2023-11-19T06:04:25.153Z,70.60
2023-11-19T06:07:12.479Z,70.50
2023-11-19T06:09:59.831Z,70.60
2023-11-19T06:12:47.415Z,70.70
2023-11-19T06:15:34.902Z,70.90
2023-11-19T06:18:22.204Z,71.00
2023-11-19T06:21:09.573Z,70.90
2023-11-19T06:23:56.880Z,71.20
2023-11-19T06:26:44.324Z,71.80
2023-11-19T06:29:31.576Z,71.50
2023-11-19T06:32:18.824Z,71.70
2023-11-19T06:35:06.749Z,71.90
2023-11-19T06:37:54.002Z,72.70
2023-11-19T06:40:42.408Z,72.80
2023-11-19T06:43:41.850Z,73.20
2023-11-19T06:46:29.905Z,73.10
2023-11-19T06:49:17.977Z,73.10
2023-11-19T06:52:05.646Z,73.20
2023-11-19T06:54:52.906Z,73.10
2023-11-19T06:57:40.159Z,73.10
2023-11-19T07:00:27.910Z,73.10
2023-11-19T07:03:15.811Z,73.10
2023-11-19T07:06:04.918Z,73.20
2023-11-19T07:08:52.253Z,73.40
2023-11-19T07:11:40.783Z,73.20
2023-11-19T07:14:28.123Z,73.50
2023-11-19T07:17:16.793Z,73.50
2023-11-19T07:20:04.579Z,74.00
2023-11-19T07:22:53.352Z,73.50
2023-11-19T07:25:41.752Z,73.40
2023-11-19T07:28:29.926Z,73.40
2023-11-19T07:31:17.490Z,73.60
2023-11-19T07:34:06.397Z,73.90
2023-11-19T07:36:53.714Z,74.00
2023-11-19T07:39:42.576Z,74.40
2023-11-19T07:42:30.237Z,74.10
2023-11-19T07:45:18.545Z,74.10
2023-11-19T07:48:07.468Z,74.10
2023-11-19T07:50:54.852Z,74.10
2023-11-19T07:53:42.479Z,74.10
2023-11-19T07:56:29.753Z,74.10
2023-11-19T07:59:17.129Z,74.10
2023-11-19T08:02:06.768Z,74.40
2023-11-19T08:04:56.346Z,74.60
2023-11-19T08:07:44.193Z,74.80
2023-11-19T08:10:31.515Z,75.00
2023-11-19T08:13:21.902Z,75.20
2023-11-19T08:16:09.364Z,75.40
2023-11-19T08:18:58.353Z,75.30
2023-11-19T08:21:45.561Z,75.40
2023-11-19T08:24:32.943Z,75.50
2023-11-19T08:27:20.341Z,75.50
2023-11-19T08:30:08.310Z,75.90
2023-11-19T08:32:55.568Z,76.00
2023-11-19T08:35:42.964Z,75.90
2023-11-19T08:38:31.890Z,75.40
2023-11-19T08:41:27.696Z,75.30
2023-11-19T08:44:15.827Z,75.30
2023-11-19T08:47:03.066Z,75.30
2023-11-19T08:52:43.962Z,74.80
2023-11-19T08:55:31.251Z,74.70
2023-11-19T08:58:19.347Z,74.80
2023-11-19T09:01:06.679Z,74.60
2023-11-19T09:03:54.054Z,74.60
2023-11-19T09:06:41.599Z,74.60
2023-11-19T09:09:28.836Z,74.30
2023-11-19T09:12:16.069Z,74.50
2023-11-19T09:15:03.801Z,74.30
2023-11-19T09:17:51.129Z,74.30
2023-11-19T09:20:39.725Z,74.10
2023-11-19T09:23:29.033Z,74.10
2023-11-19T09:26:16.696Z,74.10
2023-11-19T09:29:03.922Z,74.10
2023-11-19T09:31:51.135Z,74.00
2023-11-19T09:34:38.336Z,73.80
2023-11-19T09:37:25.570Z,73.90
2023-11-19T09:40:12.863Z,73.60
2023-11-19T09:43:00.759Z,73.40
2023-11-19T09:45:53.042Z,73.40
2023-11-19T09:48:43.630Z,73.20
2023-11-19T09:51:30.910Z,72.60
2023-11-19T09:54:18.112Z,72.90
2023-11-19T09:57:05.772Z,72.90
2023-11-19T09:59:54.556Z,72.80
2023-11-19T10:02:43.051Z,72.70
2023-11-19T10:05:30.473Z,72.60
2023-11-19T10:08:18.705Z,72.40
2023-11-19T10:11:09.476Z,72.40
2023-11-19T10:13:57.635Z,72.30
2023-11-19T10:16:46.554Z,72.30
2023-11-19T10:19:33.791Z,72.30
2023-11-19T10:22:21.079Z,72.00
2023-11-19T10:25:28.313Z,72.10
2023-11-19T10:28:19.415Z,72.00
2023-11-19T10:31:07.040Z,72.00
2023-11-19T10:33:55.237Z,71.80
2023-11-19T10:36:43.343Z,71.80
2023-11-19T10:39:57.362Z,71.80
2023-11-19T10:42:44.646Z,71.60
2023-11-19T10:45:31.918Z,71.60
2023-11-19T10:48:19.587Z,71.50
2023-11-19T10:51:12.162Z,71.60
2023-11-19T10:54:06.964Z,71.70
2023-11-19T10:57:02.206Z,71.80
2023-11-19T10:59:51.289Z,71.60
2023-11-19T11:02:43.258Z,71.60
2023-11-19T11:05:34.755Z,71.70
2023-11-19T11:08:22.163Z,71.60
2023-11-19T11:11:13.060Z,71.50
2023-11-19T11:14:03.243Z,71.50
2023-11-19T11:16:50.983Z,72.20
2023-11-19T11:19:38.762Z,71.60
2023-11-19T11:25:32.906Z,72.20
2023-11-19T11:28:49.680Z,71.60
2023-11-19T11:32:14.876Z,71.40
2023-11-19T11:35:02.091Z,72.40
2023-11-19T11:37:54.359Z,71.50
2023-11-19T11:40:41.595Z,71.60
2023-11-19T11:43:48.777Z,71.20
2023-11-19T11:46:38.937Z,71.50
2023-11-19T11:49:27.560Z,71.00
2023-11-19T11:52:17.051Z,70.80
2023-11-19T11:55:10.342Z,70.90
2023-11-19T11:57:57.833Z,70.90
2023-11-19T12:00:47.097Z,71.10
2023-11-19T12:03:35.080Z,71.00
2023-11-19T12:06:23.372Z,70.70
2023-11-19T12:09:10.636Z,70.90
2023-11-19T12:12:20.035Z,71.90
2023-11-19T12:15:08.347Z,71.30
2023-11-19T12:17:56.315Z,71.10
2023-11-19T12:20:43.666Z,71.20
2023-11-19T12:23:31.704Z,71.20
2023-11-19T12:26:31.420Z,71.20
2023-11-19T12:29:19.370Z,71.30
2023-11-19T12:34:56.852Z,71.60
2023-11-19T12:37:45.764Z,71.40
2023-11-19T12:40:33.820Z,71.90
2023-11-19T12:43:24.221Z,71.50
2023-11-19T12:46:24.682Z,72.40
2023-11-19T12:49:12.767Z,72.10
2023-11-19T12:52:01.401Z,72.20
2023-11-19T12:54:48.772Z,72.10
2023-11-19T12:57:43.265Z,71.90
2023-11-19T13:00:30.965Z,72.10
2023-11-19T13:03:30.734Z,72.00
2023-11-19T13:06:18.316Z,72.40
2023-11-19T13:09:05.655Z,72.20
2023-11-19T13:11:53.697Z,72.10
2023-11-19T13:14:43.370Z,72.30
2023-11-19T13:17:30.835Z,72.20
2023-11-19T13:20:19.068Z,72.40
2023-11-19T13:23:08.185Z,72.60
2023-11-19T13:25:55.561Z,72.70
2023-11-19T13:28:42.900Z,72.90
2023-11-19T13:31:30.230Z,72.90
2023-11-19T13:34:17.574Z,72.90
2023-11-19T13:37:05.498Z,73.10
2023-11-19T13:39:52.828Z,73.20
2023-11-19T13:42:45.087Z,73.20
2023-11-19T13:45:33.461Z,73.30
2023-11-19T13:48:21.017Z,73.30
2023-11-19T13:51:08.373Z,73.60
2023-11-19T13:53:55.893Z,73.70
2023-11-19T13:56:45.931Z,73.30
2023-11-19T13:59:36.118Z,73.40
2023-11-19T14:02:23.438Z,73.60
2023-11-19T14:05:12.067Z,73.60
2023-11-19T14:07:59.480Z,73.60
2023-11-19T14:10:46.738Z,74.10
2023-11-19T14:13:37.017Z,74.00
2023-11-19T14:16:28.130Z,74.40
2023-11-19T14:19:15.914Z,74.80
2023-11-19T14:22:06.090Z,74.90
2023-11-19T14:24:53.351Z,74.70
2023-11-19T14:27:43.248Z,75.80
2023-11-19T14:30:30.649Z,75.30
2023-11-19T14:33:19.312Z,75.50
2023-11-19T14:36:08.477Z,75.50
2023-11-19T14:38:55.864Z,76.00
2023-11-19T14:41:45.114Z,76.00
2023-11-19T14:44:35.330Z,76.30
2023-11-19T14:47:24.363Z,76.40
2023-11-19T14:50:11.647Z,76.90
2023-11-19T14:52:59.642Z,77.00
2023-11-19T14:55:46.936Z,77.70
2023-11-19T14:58:34.312Z,77.90
2023-11-19T15:01:21.669Z,78.10
2023-11-19T15:04:09.085Z,78.40
2023-11-19T15:07:00.540Z,78.70
2023-11-19T15:09:47.795Z,79.10
2023-11-19T15:12:40.280Z,80.00
2023-11-19T15:18:18.651Z,79.00
2023-11-19T15:21:06.084Z,79.10
2023-11-19T15:23:53.426Z,79.10
2023-11-19T15:26:40.786Z,79.10
2023-11-19T15:29:28.191Z,79.60
2023-11-19T15:32:15.914Z,79.20
2023-11-19T15:35:04.191Z,79.20
2023-11-19T15:37:51.571Z,79.70
2023-11-19T15:40:38.888Z,79.60
2023-11-19T15:43:26.202Z,79.30
2023-11-19T15:46:13.528Z,79.60
2023-11-19T15:49:00.920Z,79.60
2023-11-19T15:51:48.196Z,79.80
2023-11-19T15:54:35.524Z,79.80
2023-11-19T15:57:23.061Z,80.10
2023-11-19T16:00:12.089Z,80.70
2023-11-19T16:03:02.275Z,80.00
2023-11-19T16:06:01.374Z,80.30
2023-11-19T16:08:56.493Z,80.50
2023-11-19T16:11:54.114Z,80.60
2023-11-19T16:14:44.018Z,80.90
2023-11-19T16:17:31.988Z,81.00
2023-11-19T16:20:19.358Z,81.40
2023-11-19T16:23:06.788Z,81.60
2023-11-19T16:25:54.784Z,81.60
2023-11-19T16:28:44.525Z,81.50
2023-11-19T16:31:32.471Z,81.60
2023-11-19T16:34:21.406Z,81.70
2023-11-19T16:37:10.953Z,81.70
2023-11-19T16:39:58.204Z,81.80
2023-11-19T16:42:50.085Z,81.80
2023-11-19T16:45:37.310Z,82.10
2023-11-19T16:48:25.701Z,82.40
2023-11-19T16:51:23.631Z,82.20
2023-11-19T16:54:11.801Z,82.30
2023-11-19T16:56:59.169Z,83.30
2023-11-19T16:59:46.833Z,82.20
2023-11-19T17:05:27.447Z,82.70
2023-11-19T17:08:15.092Z,82.70
2023-11-19T17:11:04.506Z,82.80
2023-11-19T17:13:52.053Z,82.80
2023-11-19T17:16:40.633Z,82.70
2023-11-19T17:19:28.111Z,83.20
2023-11-19T17:22:15.373Z,83.50
2023-11-19T17:25:05.137Z,83.40
2023-11-19T17:27:52.619Z,83.50
2023-11-19T17:30:41.101Z,83.70
2023-11-19T17:33:28.357Z,83.90
2023-11-19T17:36:15.850Z,83.90
2023-11-19T17:39:05.028Z,83.90
2023-11-19T17:41:52.225Z,84.00
2023-11-19T17:44:40.006Z,83.90
2023-11-19T17:47:27.474Z,83.90
2023-11-19T17:53:05.191Z,84.20
2023-11-19T17:55:53.114Z,84.30
2023-11-19T17:58:40.402Z,84.30
2023-11-19T18:01:31.736Z,84.90
2023-11-19T18:04:19.036Z,85.10
2023-11-19T18:07:06.350Z,85.00
2023-11-19T18:09:53.682Z,85.30
2023-11-19T18:12:41.304Z,85.50
2023-11-19T18:15:30.970Z,85.60
2023-11-19T18:18:18.374Z,86.00
2023-11-19T18:21:05.789Z,86.10
2023-11-19T18:23:53.084Z,86.60
2023-11-19T18:29:30.653Z,86.90
2023-11-19T18:32:18.002Z,87.10
2023-11-19T18:35:12.679Z,87.10
2023-11-19T18:37:59.923Z,87.30
2023-11-19T18:40:47.616Z,87.40
2023-11-19T18:43:35.253Z,87.30
2023-11-19T18:46:22.497Z,87.40
2023-11-19T18:49:10.389Z,87.70
2023-11-19T18:52:02.584Z,87.70
2023-11-19T18:54:49.861Z,87.60
2023-11-19T18:57:40.213Z,87.60
2023-11-19T19:00:27.424Z,87.90
2023-11-19T19:03:29.167Z,87.80
2023-11-19T19:06:23.969Z,87.60
2023-11-19T19:09:15.236Z,88.20
2023-11-19T19:12:13.215Z,87.70
2023-11-19T19:17:53.032Z,87.90
2023-11-19T19:20:40.456Z,88.10
2023-11-19T19:23:28.208Z,88.30
2023-11-19T19:26:15.825Z,88.70
2023-11-19T19:29:03.648Z,88.60
2023-11-19T19:35:28.703Z,89.10
2023-11-19T19:38:18.711Z,89.30
2023-11-19T19:41:06.232Z,89.00
2023-11-19T19:43:53.977Z,89.70
2023-11-19T19:46:41.177Z,88.80
2023-11-19T19:49:30.816Z,88.80
2023-11-19T19:52:18.244Z,88.80
2023-11-19T19:55:09.943Z,89.30
2023-11-19T19:57:57.261Z,89.20
2023-11-19T20:00:44.652Z,89.60
2023-11-19T20:03:32.381Z,89.60
2023-11-19T20:06:22.636Z,89.40
2023-11-19T20:09:14.950Z,89.50
2023-11-19T20:12:15.557Z,89.60
2023-11-19T20:15:10.324Z,89.70
2023-11-19T20:17:58.120Z,89.30
2023-11-19T20:20:49.084Z,89.10
2023-11-19T20:23:36.793Z,89.10
2023-11-19T20:26:38.049Z,89.30
2023-11-19T20:29:26.611Z,89.10
2023-11-19T20:32:15.640Z,89.20
2023-11-19T20:35:02.932Z,89.10
2023-11-19T20:38:00.491Z,88.90
2023-11-19T20:40:47.811Z,88.60
2023-11-19T20:43:39.094Z,88.60
2023-11-19T20:46:30.730Z,88.60
2023-11-19T20:49:22.330Z,88.90
2023-11-19T20:52:12.887Z,89.10
2023-11-19T20:55:07.477Z,89.00
2023-11-19T20:57:55.904Z,89.20
2023-11-19T21:00:45.009Z,89.20
2023-11-19T21:03:32.592Z,89.60
2023-11-19T21:06:21.110Z,89.90
2023-11-19T21:09:11.318Z,89.50
2023-11-19T21:11:59.834Z,88.90
2023-11-19T21:14:48.476Z,89.30
2023-11-19T21:17:35.950Z,88.70
2023-11-19T21:20:23.204Z,89.60
2023-11-19T21:23:11.109Z,89.90
2023-11-19T21:26:01.501Z,89.90
2023-11-19T21:28:51.919Z,89.80
2023-11-19T21:34:34.267Z,88.80
2023-11-19T21:37:23.819Z,88.60
2023-11-19T21:40:11.869Z,89.10
2023-11-19T21:43:00.968Z,89.70
2023-11-19T21:45:48.394Z,89.40
2023-11-19T21:48:35.624Z,89.20
2023-11-19T21:51:22.875Z,89.60
2023-11-19T21:54:10.241Z,89.90
2023-11-19T21:56:57.551Z,89.80
2023-11-19T21:59:45.085Z,89.70
2023-11-19T22:02:32.760Z,89.80
2023-11-19T22:05:22.764Z,89.60
2023-11-19T22:11:00.970Z,89.60
2023-11-19T22:13:48.222Z,89.20
2023-11-19T22:16:35.590Z,89.20
2023-11-19T22:19:22.859Z,89.00
2023-11-19T22:22:10.053Z,89.20
2023-11-19T22:24:57.372Z,89.30
2023-11-19T22:27:44.741Z,89.10
2023-11-19T22:30:32.057Z,88.80
2023-11-19T22:33:19.511Z,89.00
2023-11-19T22:36:07.279Z,89.10
2023-11-19T22:38:55.358Z,89.70
2023-11-19T22:41:42.932Z,89.00
2023-11-19T22:44:30.208Z,89.00
2023-11-19T22:47:17.755Z,89.10
2023-11-19T22:50:05.405Z,89.30
2023-11-19T22:52:53.789Z,89.30
2023-11-19T22:55:41.000Z,89.40
2023-11-19T23:01:16.280Z,89.20
2023-11-19T23:04:03.883Z,89.00
2023-11-19T23:06:51.253Z,88.90
2023-11-19T23:09:40.727Z,89.10
2023-11-19T23:12:28.095Z,89.00
2023-11-19T23:15:18.242Z,89.20
2023-11-19T23:18:06.435Z,89.00
2023-11-19T23:20:54.412Z,89.30
2023-11-19T23:23:41.715Z,89.20
2023-11-19T23:26:29.044Z,89.70
2023-11-19T23:29:16.760Z,89.30
2023-11-19T23:32:05.976Z,88.80
2023-11-19T23:34:53.161Z,89.20
2023-11-19T23:37:42.137Z,89.20
2023-11-19T23:40:29.496Z,89.30
2023-11-19T23:43:16.730Z,89.50
2023-11-19T23:46:04.666Z,89.60
2023-11-19T23:51:44.330Z,89.60
2023-11-19T23:54:32.320Z,89.90
2023-11-19T23:57:19.591Z,89.60
